Main page
METAR-TAF:

METAR-TAF

Airports :

Aeroporto di Sarzana-Luni

Sarzana, Italy

latitude: 44-05N, longitude: 009-59E, elevation: 9 m

Current weather observation

The report was made 9 hours and 1 minutes ago, at 09:55 UTC
Wind 9 kt from the Southwest
Temperature 20°C
Humidity 83%
Pressure 1019 hPa
Visibility 10 km or more
Broken clouds at a height of 2500 ft

METAR: LIQW 140955Z 22009KT 9999 BKN025 20/17 Q1019 RMK BKN VIS MIN 9999 WIND THR14 /////KT BLU

Time: 20:56 (18:56 UTC)

Forecast

The report was made 10 hours and 56 minutes ago, at 08:00 UTC
Forecast valid from 14 at 09 UTC to 14 at 18 UTC
Wind 10 kt from the Southwest
Visibility 10 km or more
Broken clouds at a height of 2000 ft
Temporary
from 14 at 09 UTC to 14 at 10 UTC
Visibility: 7000 m
rain,

TAF: LIQW 140800Z 1409/1418 23010KT 9999 BKN020 TEMPO 1409/1410 7000 RA

Weather observations and forecasts of more than 4000 airports (METAR and TAF reports).

The available stations are represented by yellow and red dots on the map.

Hover mouse over dot to see the name of the station.

Then click to see weather observations and forecasts.

To change the map : click on the green buttons with a black cross to zoom in, on the green button with a dash to zoom out, or on the green arrows for adjacent maps.


METAR-TAF: